createdAt,value
2019-02-28T00:01:12.864Z,24.89
2019-02-28T00:03:33.552Z,24.89
2019-02-28T00:05:54.251Z,24.90
2019-02-28T00:08:22.102Z,24.77
2019-02-28T00:10:42.083Z,24.49
2019-02-28T00:13:22.512Z,24.73
2019-02-28T00:15:49.348Z,24.62
2019-02-28T00:18:03.749Z,24.71
2019-02-28T00:20:33.331Z,24.86
2019-02-28T00:23:03.686Z,25.11
2019-02-28T00:25:20.499Z,25.33
2019-02-28T00:27:42.886Z,25.55
2019-02-28T00:30:06.023Z,25.66
2019-02-28T00:32:13.134Z,25.76
2019-02-28T00:39:55.482Z,25.59
2019-02-28T00:42:28.876Z,25.43
2019-02-28T00:44:34.804Z,25.22
2019-02-28T00:46:53.578Z,25.22
2019-02-28T00:51:50.700Z,25.17
2019-02-28T00:54:09.460Z,25.02
2019-02-28T00:56:17.525Z,25.00
2019-02-28T00:58:31.456Z,24.94
2019-02-28T01:00:44.228Z,24.82
2019-02-28T01:03:01.521Z,24.82
2019-02-28T01:05:20.998Z,24.80
2019-02-28T01:08:15.600Z,24.70
2019-02-28T01:10:46.814Z,24.69
2019-02-28T01:12:55.960Z,24.64
2019-02-28T01:15:03.395Z,24.58
2019-02-28T01:17:13.616Z,24.54
2019-02-28T01:19:21.071Z,24.44
2019-02-28T01:21:29.053Z,24.40
2019-02-28T01:26:25.319Z,24.33
2019-02-28T01:28:32.603Z,24.31
2019-02-28T01:30:40.553Z,24.25
2019-02-28T01:32:50.907Z,24.23
2019-02-28T01:34:59.521Z,24.24
2019-02-28T01:37:07.119Z,24.22
2019-02-28T01:39:14.811Z,24.25
2019-02-28T01:41:22.560Z,24.19
2019-02-28T01:43:30.803Z,24.18
2019-02-28T01:45:43.486Z,24.18
2019-02-28T01:47:47.935Z,24.15
2019-02-28T01:49:57.712Z,24.13
2019-02-28T01:52:09.790Z,24.09
2019-02-28T01:55:30.261Z,24.09
2019-02-28T01:56:40.037Z,24.07
2019-02-28T01:58:52.572Z,24.03
2019-02-28T02:01:10.135Z,23.97
2019-02-28T02:03:35.575Z,23.94
2019-02-28T02:06:51.725Z,23.90
2019-02-28T02:09:03.246Z,23.89
2019-02-28T02:11:35.939Z,23.75
2019-02-28T02:14:26.835Z,23.66
2019-02-28T02:16:44.465Z,23.53
2019-02-28T02:19:18.477Z,23.54
2019-02-28T02:21:43.035Z,23.41
2019-02-28T02:23:53.109Z,23.31
2019-02-28T02:26:01.001Z,23.27
2019-02-28T02:28:09.877Z,23.27
2019-02-28T02:30:22.808Z,23.29
2019-02-28T02:32:37.283Z,23.20
2019-02-28T02:34:39.277Z,23.21
2019-02-28T02:36:53.062Z,23.15
2019-02-28T02:38:56.397Z,23.16
2019-02-28T02:41:07.640Z,23.16
2019-02-28T02:43:23.381Z,23.20
2019-02-28T02:45:41.896Z,23.26
2019-02-28T02:50:34.021Z,23.21
2019-02-28T02:52:53.222Z,23.23
2019-02-28T02:55:13.405Z,23.29
2019-02-28T02:58:10.139Z,23.35
2019-02-28T03:03:06.033Z,23.40
2019-02-28T03:05:45.272Z,23.32
2019-02-28T03:08:04.271Z,23.18
2019-02-28T03:10:23.121Z,23.15
2019-02-28T03:12:34.594Z,22.93
2019-02-28T03:14:51.986Z,22.91
2019-02-28T03:17:10.401Z,22.86
2019-02-28T03:19:20.838Z,22.75
2019-02-28T03:21:34.891Z,22.75
2019-02-28T03:23:44.693Z,22.78
2019-02-28T03:25:54.302Z,22.71
2019-02-28T03:28:01.986Z,22.77
2019-02-28T03:30:27.829Z,22.71
2019-02-28T03:32:59.904Z,22.71
2019-02-28T03:35:17.474Z,22.81
2019-02-28T03:37:36.449Z,23.01
2019-02-28T03:39:48.063Z,23.13
2019-02-28T03:41:55.432Z,23.33
2019-02-28T03:44:07.518Z,23.48
2019-02-28T03:46:14.761Z,23.62
2019-02-28T03:48:35.901Z,23.75
2019-02-28T03:50:48.887Z,23.74
2019-02-28T03:53:01.060Z,23.67
2019-02-28T03:55:08.974Z,23.56
2019-02-28T03:57:16.302Z,23.54
2019-02-28T03:59:55.356Z,23.41
2019-02-28T04:01:56.651Z,23.36
2019-02-28T04:04:34.852Z,23.26
2019-02-28T04:09:21.317Z,23.04
2019-02-28T04:11:38.978Z,22.93
2019-02-28T04:13:52.409Z,22.87
2019-02-28T04:16:08.802Z,22.83
2019-02-28T04:18:09.544Z,22.75
2019-02-28T04:20:16.981Z,22.63
2019-02-28T04:22:25.711Z,22.59
2019-02-28T04:24:32.993Z,22.60
2019-02-28T04:26:40.753Z,22.58
2019-02-28T04:28:53.488Z,22.55
2019-02-28T04:30:59.529Z,22.67
2019-02-28T04:33:07.631Z,22.85
2019-02-28T04:35:14.984Z,23.01
2019-02-28T04:37:22.436Z,23.18
2019-02-28T04:39:29.641Z,23.31
2019-02-28T04:41:39.312Z,23.43
2019-02-28T04:43:46.593Z,23.53
2019-02-28T04:45:53.857Z,23.70
2019-02-28T04:48:01.044Z,23.78
2019-02-28T04:50:08.646Z,23.86
2019-02-28T04:52:17.212Z,23.91
2019-02-28T04:54:27.899Z,24.00
2019-02-28T04:56:33.767Z,23.94
2019-02-28T04:58:41.476Z,23.88
2019-02-28T05:00:49.421Z,23.74
2019-02-28T05:02:56.669Z,23.59
2019-02-28T05:05:16.236Z,23.52
2019-02-28T05:08:15.004Z,23.50
2019-02-28T05:10:39.331Z,23.43
2019-02-28T05:12:46.626Z,23.27
2019-02-28T05:15:06.392Z,23.18
2019-02-28T05:17:14.318Z,23.08
2019-02-28T05:19:21.706Z,23.01
2019-02-28T05:21:33.673Z,22.95
2019-02-28T05:23:41.216Z,22.91
2019-02-28T05:25:49.075Z,22.88
2019-02-28T05:27:59.437Z,22.86
2019-02-28T05:30:07.104Z,22.79
2019-02-28T05:32:15.060Z,22.79
2019-02-28T05:34:25.223Z,22.72
2019-02-28T05:36:34.590Z,22.76
2019-02-28T05:38:42.802Z,22.73
2019-02-28T05:40:49.916Z,22.68
2019-02-28T05:42:58.534Z,22.69
2019-02-28T05:45:06.183Z,22.78
2019-02-28T05:47:45.864Z,22.91
2019-02-28T05:49:43.758Z,23.06
2019-02-28T05:51:51.044Z,23.24
2019-02-28T05:53:58.399Z,23.39
2019-02-28T05:56:05.455Z,23.49
2019-02-28T05:58:17.369Z,23.36
2019-02-28T06:00:24.131Z,23.30
2019-02-28T06:02:31.118Z,23.29
2019-02-28T06:04:40.021Z,23.17
2019-02-28T06:06:48.186Z,23.09
2019-02-28T06:08:55.393Z,22.94
2019-02-28T06:11:02.891Z,22.80
2019-02-28T06:13:10.222Z,22.75
2019-02-28T06:15:18.470Z,22.70
2019-02-28T06:17:26.566Z,22.60
2019-02-28T06:19:44.304Z,22.46
2019-02-28T06:21:56.380Z,22.41
2019-02-28T06:24:02.715Z,22.49
2019-02-28T06:26:10.512Z,22.79
2019-02-28T06:28:17.840Z,22.88
2019-02-28T06:30:27.672Z,23.06
2019-02-28T06:32:34.338Z,23.15
2019-02-28T06:34:42.270Z,23.29
2019-02-28T06:36:50.467Z,23.37
2019-02-28T06:38:57.555Z,23.47
2019-02-28T06:41:07.530Z,23.47
2019-02-28T06:43:15.234Z,23.28
2019-02-28T06:45:22.717Z,23.15
2019-02-28T06:47:29.821Z,23.11
2019-02-28T06:49:41.814Z,23.00
2019-02-28T06:51:48.372Z,22.97
2019-02-28T06:53:56.140Z,22.85
2019-02-28T06:56:03.759Z,22.75
2019-02-28T06:58:10.816Z,22.62
2019-02-28T07:00:18.136Z,22.53
2019-02-28T07:02:28.580Z,22.43
2019-02-28T07:04:34.858Z,22.35
2019-02-28T07:06:42.709Z,22.41
2019-02-28T07:08:50.000Z,22.53
2019-02-28T07:10:57.213Z,22.67
2019-02-28T07:13:05.523Z,22.80
2019-02-28T07:15:14.101Z,22.98
2019-02-28T07:17:21.705Z,23.06
2019-02-28T07:19:29.066Z,23.18
2019-02-28T07:21:42.868Z,23.34
2019-02-28T07:23:45.969Z,23.43
2019-02-28T07:25:53.144Z,23.34
2019-02-28T07:28:01.535Z,23.20
2019-02-28T07:30:17.153Z,23.16
2019-02-28T07:32:20.677Z,23.00
2019-02-28T07:34:27.885Z,22.86
2019-02-28T07:36:34.928Z,22.74
2019-02-28T07:38:42.261Z,22.60
2019-02-28T07:40:50.423Z,22.53
2019-02-28T07:42:57.825Z,22.41
2019-02-28T07:45:05.004Z,22.31
2019-02-28T07:47:17.118Z,22.23
2019-02-28T07:49:21.188Z,22.27
2019-02-28T07:51:30.571Z,22.40
2019-02-28T07:53:40.925Z,22.52
2019-02-28T07:55:46.978Z,22.72
2019-02-28T07:57:56.571Z,22.86
2019-02-28T08:00:04.408Z,23.00
2019-02-28T08:02:12.612Z,23.14
2019-02-28T08:04:19.725Z,23.17
2019-02-28T08:10:12.710Z,22.90
2019-02-28T08:13:06.086Z,22.74
2019-02-28T08:15:22.313Z,22.53
2019-02-28T08:17:44.716Z,22.41
2019-02-28T08:20:03.164Z,22.34
2019-02-28T08:24:43.364Z,22.17
2019-02-28T08:26:53.628Z,22.25
2019-02-28T08:29:00.242Z,22.42
2019-02-28T08:31:07.921Z,22.57
2019-02-28T08:33:16.573Z,22.71
2019-02-28T08:35:24.452Z,22.84
2019-02-28T08:37:31.934Z,22.93
2019-02-28T08:39:42.184Z,23.08
2019-02-28T08:42:02.879Z,23.17
2019-02-28T08:44:06.805Z,23.30
2019-02-28T08:46:14.166Z,23.26
2019-02-28T08:48:21.227Z,23.07
2019-02-28T08:50:28.435Z,23.00
2019-02-28T08:52:37.705Z,22.88
2019-02-28T08:54:44.641Z,22.74
2019-02-28T08:56:52.004Z,22.60
2019-02-28T08:58:59.127Z,22.53
2019-02-28T09:01:08.451Z,22.46
2019-02-28T09:03:18.902Z,22.34
2019-02-28T09:05:38.143Z,22.27
2019-02-28T09:08:17.687Z,22.29
2019-02-28T09:10:37.542Z,22.55
2019-02-28T09:12:54.005Z,22.66
2019-02-28T09:15:06.229Z,22.77
2019-02-28T09:17:43.488Z,22.89
2019-02-28T09:22:31.776Z,23.14
2019-02-28T09:24:43.671Z,23.21
2019-02-28T09:26:54.529Z,23.18
2019-02-28T09:29:22.253Z,22.98
2019-02-28T09:31:39.015Z,22.85
2019-02-28T09:34:09.193Z,22.83
2019-02-28T09:36:20.222Z,22.67
2019-02-28T09:38:25.767Z,22.52
2019-02-28T09:40:33.486Z,22.44
2019-02-28T09:45:35.762Z,22.52
2019-02-28T09:47:44.116Z,22.74
2019-02-28T09:50:22.618Z,22.88
2019-02-28T09:52:42.601Z,23.00
2019-02-28T09:55:10.187Z,23.12
2019-02-28T09:57:25.593Z,23.17
2019-02-28T09:59:42.075Z,23.03
2019-02-28T10:02:01.761Z,22.96
2019-02-28T10:04:38.229Z,22.86
2019-02-28T10:07:32.011Z,22.73
2019-02-28T10:10:11.357Z,22.62
2019-02-28T10:12:19.883Z,22.44
2019-02-28T10:14:43.824Z,22.24
2019-02-28T10:17:03.909Z,22.17
2019-02-28T10:19:17.751Z,22.15
2019-02-28T10:22:03.894Z,22.15
2019-02-28T10:24:50.851Z,22.29
2019-02-28T10:27:04.681Z,22.46
2019-02-28T10:29:51.250Z,22.62
2019-02-28T10:31:58.983Z,22.75
2019-02-28T10:34:10.794Z,22.94
2019-02-28T10:36:18.029Z,23.05
2019-02-28T10:38:32.916Z,23.14
2019-02-28T10:40:44.973Z,23.22
2019-02-28T10:42:54.034Z,23.35
2019-02-28T10:45:06.582Z,23.42
2019-02-28T10:47:29.779Z,23.45
2019-02-28T10:49:35.945Z,23.38
2019-02-28T10:51:57.335Z,23.21
2019-02-28T10:54:24.512Z,23.12
2019-02-28T10:56:31.742Z,23.07
2019-02-28T10:58:39.818Z,22.95
2019-02-28T11:01:10.104Z,22.78
2019-02-28T11:03:24.245Z,22.67
2019-02-28T11:05:56.229Z,22.66
2019-02-28T11:08:09.695Z,22.69
2019-02-28T11:10:22.141Z,22.75
2019-02-28T11:12:41.778Z,22.88
2019-02-28T11:14:53.011Z,23.01
2019-02-28T11:17:13.908Z,23.12
2019-02-28T11:19:44.924Z,23.20
2019-02-28T11:21:40.067Z,23.26
2019-02-28T11:23:50.271Z,23.36
2019-02-28T11:25:58.494Z,23.40
2019-02-28T11:28:10.881Z,23.33
2019-02-28T11:31:43.328Z,23.23
2019-02-28T11:33:03.047Z,23.12
2019-02-28T11:35:33.616Z,23.10
2019-02-28T11:37:48.974Z,22.98
2019-02-28T11:40:00.992Z,22.84
2019-02-28T11:42:09.415Z,22.71
2019-02-28T11:44:31.715Z,22.60
2019-02-28T11:49:18.143Z,22.42
2019-02-28T11:51:38.951Z,22.36
2019-02-28T11:56:14.342Z,22.24
2019-02-28T11:58:31.763Z,22.33
2019-02-28T12:00:47.548Z,22.48
2019-02-28T12:03:25.792Z,22.56
2019-02-28T12:05:49.870Z,22.69
2019-02-28T12:07:58.133Z,22.82
2019-02-28T12:10:12.407Z,22.91
2019-02-28T12:12:20.457Z,23.12
2019-02-28T12:14:30.128Z,23.22
2019-02-28T12:16:38.251Z,23.31
2019-02-28T12:18:46.979Z,23.44
2019-02-28T12:20:58.635Z,23.50
2019-02-28T12:23:04.827Z,23.45
2019-02-28T12:25:19.257Z,23.32
2019-02-28T12:27:30.520Z,23.28
2019-02-28T12:29:38.461Z,23.18
2019-02-28T12:31:46.210Z,23.06
2019-02-28T12:33:59.629Z,23.01
2019-02-28T12:36:14.451Z,22.95
2019-02-28T12:38:29.217Z,22.98
2019-02-28T12:40:45.742Z,23.04
2019-02-28T12:42:54.885Z,23.06
2019-02-28T12:45:41.347Z,23.20
2019-02-28T12:47:48.714Z,23.36
2019-02-28T12:50:18.469Z,23.48
2019-02-28T12:52:52.833Z,23.53
2019-02-28T12:55:05.638Z,23.68
2019-02-28T12:57:13.139Z,23.78
2019-02-28T12:59:31.885Z,23.87
2019-02-28T13:01:42.597Z,23.93
2019-02-28T13:04:00.298Z,24.06
2019-02-28T13:06:05.790Z,24.12
2019-02-28T13:08:16.299Z,24.18
2019-02-28T13:10:28.035Z,24.29
2019-02-28T13:12:37.855Z,24.36
2019-02-28T13:15:01.444Z,24.43
2019-02-28T13:17:02.546Z,24.55
2019-02-28T13:19:16.449Z,24.58
2019-02-28T13:21:27.632Z,24.63
2019-02-28T13:26:05.922Z,24.68
2019-02-28T13:28:17.773Z,24.76
2019-02-28T13:30:49.096Z,24.85
2019-02-28T13:33:05.805Z,24.88
2019-02-28T13:35:56.193Z,24.76
2019-02-28T13:38:17.361Z,24.88
2019-02-28T13:40:32.596Z,24.96
2019-02-28T13:42:49.246Z,24.93
2019-02-28T13:44:59.266Z,25.00
2019-02-28T13:47:11.863Z,25.06
2019-02-28T13:49:36.174Z,25.08
2019-02-28T13:52:06.127Z,25.17
2019-02-28T13:54:20.157Z,25.33
2019-02-28T13:56:33.223Z,25.43
2019-02-28T13:58:57.164Z,25.56
2019-02-28T14:01:12.197Z,25.53
2019-02-28T14:03:24.465Z,25.45
2019-02-28T14:05:41.656Z,25.31
2019-02-28T14:07:49.857Z,25.22
2019-02-28T14:10:07.869Z,25.16
2019-02-28T14:12:17.069Z,25.04
2019-02-28T14:14:34.587Z,24.89
2019-02-28T14:16:58.390Z,24.88
2019-02-28T14:19:20.286Z,24.94
2019-02-28T14:21:34.351Z,25.03
2019-02-28T14:23:45.027Z,25.17
2019-02-28T14:25:56.843Z,25.34
2019-02-28T14:28:13.505Z,25.50
2019-02-28T14:30:29.247Z,25.59
2019-02-28T14:35:22.757Z,25.67
2019-02-28T14:35:34.113Z,25.45
2019-02-28T14:37:23.157Z,25.17
2019-02-28T14:39:39.767Z,25.11
2019-02-28T14:42:03.161Z,25.04
2019-02-28T14:44:14.932Z,24.90
2019-02-28T14:46:22.509Z,24.75
2019-02-28T14:48:36.532Z,24.65
2019-02-28T14:50:46.238Z,24.57
2019-02-28T14:52:58.634Z,24.51
2019-02-28T14:55:10.638Z,24.43
2019-02-28T14:57:30.734Z,24.32
2019-02-28T14:59:44.620Z,24.20
2019-02-28T15:01:56.078Z,24.09
2019-02-28T15:04:09.302Z,24.03
2019-02-28T15:06:16.576Z,23.92
2019-02-28T15:08:51.004Z,23.86
2019-02-28T15:11:14.032Z,23.79
2019-02-28T15:13:25.795Z,23.71
2019-02-28T15:15:36.589Z,23.62
2019-02-28T15:17:57.525Z,23.58
2019-02-28T15:20:12.805Z,23.56
2019-02-28T15:22:31.684Z,23.50
2019-02-28T15:24:51.956Z,23.44
2019-02-28T15:27:06.054Z,23.44
2019-02-28T15:29:23.387Z,23.44
2019-02-28T15:31:31.461Z,23.36
2019-02-28T15:33:44.402Z,23.32
2019-02-28T15:35:57.850Z,23.29
2019-02-28T15:38:11.824Z,23.29
2019-02-28T15:40:26.218Z,23.24
2019-02-28T15:42:42.904Z,23.17
2019-02-28T15:44:56.472Z,23.15
2019-02-28T15:47:13.546Z,23.13
2019-02-28T15:49:25.523Z,23.12
2019-02-28T15:51:39.280Z,23.07
2019-02-28T15:53:46.859Z,23.04
2019-02-28T15:55:59.768Z,23.03
2019-02-28T15:58:11.891Z,23.00
2019-02-28T16:00:37.045Z,22.96
2019-02-28T16:02:44.247Z,22.96
2019-02-28T16:04:52.149Z,22.92
2019-02-28T16:06:59.592Z,22.93
2019-02-28T16:09:12.899Z,22.88
2019-02-28T16:11:22.526Z,22.89
2019-02-28T16:13:38.459Z,22.82
2019-02-28T16:15:51.874Z,22.82
2019-02-28T16:18:08.649Z,22.81
2019-02-28T16:20:20.306Z,22.77
2019-02-28T16:22:31.903Z,22.79
2019-02-28T16:24:46.844Z,22.74
2019-02-28T16:27:01.094Z,22.77
2019-02-28T16:29:31.595Z,22.75
2019-02-28T16:31:41.629Z,22.73
2019-02-28T16:33:56.621Z,22.70
2019-02-28T16:36:03.040Z,22.68
2019-02-28T16:38:16.884Z,22.66
2019-02-28T16:40:28.154Z,22.63
2019-02-28T16:45:16.312Z,22.62
2019-02-28T16:48:03.052Z,22.57
2019-02-28T16:50:15.291Z,22.51
2019-02-28T16:52:27.359Z,22.53
2019-02-28T16:54:42.101Z,22.52
2019-02-28T16:57:01.352Z,22.44
2019-02-28T16:59:17.923Z,22.60
2019-02-28T17:01:40.961Z,22.78
2019-02-28T17:03:52.016Z,22.99
2019-02-28T17:06:02.370Z,23.19
2019-02-28T17:08:15.500Z,23.36
2019-02-28T17:10:32.956Z,23.53
2019-02-28T17:13:06.998Z,23.74
2019-02-28T17:15:26.038Z,23.89
2019-02-28T17:17:47.082Z,24.05
2019-02-28T17:19:58.050Z,24.14
2019-02-28T17:22:05.515Z,24.25
2019-02-28T17:24:17.723Z,24.33
2019-02-28T17:27:02.369Z,24.42
2019-02-28T17:29:29.621Z,24.52
2019-02-28T17:31:44.674Z,24.61
2019-02-28T17:33:54.278Z,24.73
2019-02-28T17:36:08.457Z,24.78
2019-02-28T17:38:31.868Z,24.86
2019-02-28T17:40:39.124Z,24.91
2019-02-28T17:42:49.830Z,25.03
2019-02-28T17:45:15.504Z,25.06
2019-02-28T17:47:56.525Z,25.20
2019-02-28T17:50:32.351Z,25.26
2019-02-28T17:52:52.656Z,25.31
2019-02-28T17:55:45.784Z,25.37
2019-02-28T17:58:20.793Z,25.37
2019-02-28T18:01:05.011Z,25.44
2019-02-28T18:03:29.114Z,25.50
2019-02-28T18:06:00.506Z,25.54
2019-02-28T18:08:18.576Z,25.54
2019-02-28T18:11:02.888Z,25.48
2019-02-28T18:13:52.241Z,25.17
2019-02-28T18:16:33.828Z,25.00
2019-02-28T18:19:33.380Z,24.86
2019-02-28T18:22:16.879Z,24.88
2019-02-28T18:25:23.161Z,24.77
2019-02-28T18:27:56.755Z,24.64
2019-02-28T18:30:57.545Z,24.46
2019-02-28T18:33:10.236Z,24.40
2019-02-28T18:35:25.966Z,24.49
2019-02-28T18:37:33.167Z,24.68
2019-02-28T18:39:49.322Z,24.90
2019-02-28T18:41:57.042Z,25.12
2019-02-28T18:44:05.144Z,25.24
2019-02-28T18:46:15.545Z,25.33
2019-02-28T18:48:34.139Z,25.46
2019-02-28T18:50:40.427Z,25.60
2019-02-28T18:52:47.817Z,25.56
2019-02-28T18:54:55.048Z,25.56
2019-02-28T18:57:05.897Z,25.49
2019-02-28T18:59:13.277Z,25.46
2019-02-28T19:01:20.702Z,25.37
2019-02-28T19:03:37.179Z,25.28
2019-02-28T19:05:50.488Z,25.19
2019-02-28T19:07:58.005Z,24.95
2019-02-28T19:10:06.748Z,24.88
2019-02-28T19:12:13.987Z,24.83
2019-02-28T19:14:21.576Z,24.76
2019-02-28T19:16:28.633Z,24.78
2019-02-28T19:18:57.937Z,24.86
2019-02-28T19:21:19.728Z,24.98
2019-02-28T19:23:43.020Z,25.11
2019-02-28T19:25:55.051Z,25.27
2019-02-28T19:28:02.403Z,25.43
2019-02-28T19:30:11.484Z,25.42
2019-02-28T19:35:19.020Z,25.36
2019-02-28T19:37:26.277Z,25.23
2019-02-28T19:39:33.467Z,25.13
2019-02-28T19:41:45.055Z,25.00
2019-02-28T19:43:52.616Z,24.97
2019-02-28T19:46:02.294Z,24.91
2019-02-28T19:48:09.464Z,24.84
2019-02-28T19:50:17.557Z,24.79
2019-02-28T19:52:24.978Z,24.80
2019-02-28T19:54:36.972Z,24.94
2019-02-28T19:56:44.128Z,25.05
2019-02-28T19:58:51.254Z,25.12
2019-02-28T20:00:59.644Z,25.20
2019-02-28T20:06:05.903Z,25.25
2019-02-28T20:08:14.030Z,25.16
2019-02-28T20:10:21.361Z,25.12
2019-02-28T20:12:31.043Z,25.01
2019-02-28T20:14:38.772Z,25.08
2019-02-28T20:16:46.028Z,25.06
2019-02-28T20:18:53.750Z,25.04
2019-02-28T20:21:01.030Z,25.00
2019-02-28T20:23:09.081Z,24.95
2019-02-28T20:25:17.589Z,24.92
2019-02-28T20:27:26.166Z,24.85
2019-02-28T20:29:33.748Z,24.83
2019-02-28T20:31:41.844Z,24.74
2019-02-28T20:33:49.142Z,24.81
2019-02-28T20:35:57.164Z,24.94
2019-02-28T20:38:04.841Z,25.11
2019-02-28T20:40:14.147Z,25.18
2019-02-28T20:42:22.322Z,25.30
2019-02-28T20:44:30.580Z,25.38
2019-02-28T20:46:37.877Z,25.21
2019-02-28T20:48:45.162Z,25.21
2019-02-28T20:50:52.519Z,25.13
2019-02-28T20:52:59.835Z,25.20
2019-02-28T20:55:08.068Z,25.19
2019-02-28T20:57:15.473Z,25.14
2019-02-28T20:59:23.136Z,25.01
2019-02-28T21:01:31.077Z,24.98
2019-02-28T21:03:38.187Z,24.83
2019-02-28T21:05:45.874Z,24.84
2019-02-28T21:07:54.047Z,24.85
2019-02-28T21:10:02.213Z,24.81
2019-02-28T21:12:10.193Z,24.86
2019-02-28T21:14:18.544Z,24.83
2019-02-28T21:16:26.482Z,25.03
2019-02-28T21:18:33.716Z,25.19
2019-02-28T21:20:42.360Z,25.35
2019-02-28T21:22:50.063Z,25.46
2019-02-28T21:24:57.236Z,25.57
2019-02-28T21:27:04.595Z,25.70
2019-02-28T21:29:11.878Z,25.78
2019-02-28T21:31:18.813Z,25.67
2019-02-28T21:33:26.841Z,25.62
2019-02-28T21:35:34.223Z,25.59
2019-02-28T21:37:41.467Z,25.63
2019-02-28T21:39:49.373Z,25.55
2019-02-28T21:41:56.810Z,25.58
2019-02-28T21:44:13.985Z,25.56
2019-02-28T21:46:24.560Z,25.36
2019-02-28T21:48:32.424Z,25.32
2019-02-28T21:50:43.145Z,25.35
2019-02-28T21:53:05.643Z,25.34
2019-02-28T21:55:21.225Z,25.34
2019-02-28T21:57:29.269Z,25.24
2019-02-28T21:59:36.884Z,25.23
2019-02-28T22:01:45.045Z,25.27
2019-02-28T22:03:53.908Z,25.38
2019-02-28T22:08:28.063Z,25.73
2019-02-28T22:10:38.686Z,25.72
2019-02-28T22:12:47.545Z,25.92
2019-02-28T22:14:58.002Z,25.92
2019-02-28T22:17:05.699Z,25.89
2019-02-28T22:19:22.173Z,25.80
2019-02-28T22:21:29.771Z,25.73
2019-02-28T22:23:37.983Z,25.65
2019-02-28T22:25:45.819Z,25.59
2019-02-28T22:27:53.294Z,25.51
2019-02-28T22:30:13.932Z,25.44
2019-02-28T22:32:28.955Z,25.41
2019-02-28T22:34:49.144Z,25.36
2019-02-28T22:37:04.649Z,25.37
2019-02-28T22:42:21.907Z,25.60
2019-02-28T22:45:14.653Z,25.74
2019-02-28T22:46:53.876Z,25.83
2019-02-28T22:49:18.403Z,25.77
2019-02-28T22:51:32.551Z,25.87
2019-02-28T22:53:48.182Z,25.89
2019-02-28T22:56:03.149Z,25.82
2019-02-28T22:58:32.741Z,25.79
2019-02-28T23:04:25.765Z,25.65
2019-02-28T23:06:34.777Z,25.51
2019-02-28T23:09:32.995Z,25.41
2019-02-28T23:11:43.011Z,25.37
2019-02-28T23:14:11.106Z,25.29
2019-02-28T23:16:07.114Z,25.22
2019-02-28T23:18:40.545Z,25.18
2019-02-28T23:23:30.671Z,25.27
2019-02-28T23:26:06.386Z,25.40
2019-02-28T23:28:21.971Z,25.55
2019-02-28T23:31:04.850Z,25.71
2019-02-28T23:33:22.214Z,25.88
2019-02-28T23:35:45.253Z,26.07
2019-02-28T23:38:19.530Z,26.06
2019-02-28T23:40:34.387Z,26.01
2019-02-28T23:43:10.197Z,25.93
2019-02-28T23:45:25.227Z,25.83
2019-02-28T23:47:42.045Z,25.85
2019-02-28T23:50:18.275Z,25.81
2019-02-28T23:52:28.706Z,25.72
2019-02-28T23:54:39.383Z,25.64
2019-02-28T23:59:39.876Z,25.38
